Time;durP1;ratioP1;P1;durP2;ratioP2;P2;SDS_P1;SDS_P2;PMS_P1;PMS_P2;Temp;Humidity;BMP_temperature;BMP_pressure;BME280_temperature;BME280_humidity;BME280_pressure;Samples;Min_cycle;Max_cycle;Signal;HPM_P1;HPM_P2
2023/01/09 00:00:38;;;;;;;15.20;7.53;;;;;;;;;;6090800;23;20026;-70
2023/01/09 00:03:13;;;;;;;18.20;7.45;;;;;;;;;;6088519;23;20551;-58
2023/01/09 00:05:40;;;;;;;16.02;7.38;;;;;;;;;;6089788;23;20528;-47
2023/01/09 00:08:07;;;;;;;20.55;7.30;;;;;;;;;;6088114;23;20108;-47
2023/01/09 00:10:41;;;;;;;21.10;8.45;;;;;;;;;;6089933;23;20030;-49
2023/01/09 00:13:10;;;;;;;19.25;7.90;;;;;;;;;;6088732;23;20050;-47
2023/01/09 00:15:45;;;;;;;15.00;6.80;;;;;;;;;;6090509;23;20030;-46
2023/01/09 00:18:12;;;;;;;15.02;6.70;;;;;;;;;;6088587;23;20105;-48
2023/01/09 00:20:39;;;;;;;13.88;6.97;;;;;;;;;;6089093;23;20054;-60
2023/01/09 00:23:13;;;;;;;14.18;7.13;;;;;;;;;;6088325;23;20101;-59
2023/01/09 00:25:40;;;;;;;13.93;6.15;;;;;;;;;;6089317;23;20026;-59
2023/01/09 00:28:14;;;;;;;20.85;7.90;;;;;;;;;;6088332;23;20429;-59
2023/01/09 00:30:41;;;;;;;17.00;8.82;;;;;;;;;;6088465;23;20081;-59
2023/01/09 00:33:09;;;;;;;18.38;9.07;;;;;;;;;;6088859;23;20049;-60
2023/01/09 00:35:43;;;;;;;17.30;7.18;;;;;;;;;;6088654;23;20064;-57
2023/01/09 00:38:10;;;;;;;16.10;7.38;;;;;;;;;;6088843;23;20065;-60
2023/01/09 00:40:37;;;;;;;15.65;7.60;;;;;;;;;;6088682;23;20036;-59
2023/01/09 00:43:11;;;;;;;16.48;7.32;;;;;;;;;;6087915;23;20062;-59
2023/01/09 00:45:38;;;;;;;13.98;8.23;;;;;;;;;;6089037;23;20022;-59
2023/01/09 00:48:15;;;;;;;14.70;6.93;;;;;;;;;;6086783;23;20409;-59
2023/01/09 00:50:43;;;;;;;18.85;7.38;;;;;;;;;;6088446;23;20046;-59
2023/01/09 00:53:18;;;;;;;19.67;10.02;;;;;;;;;;6088892;23;20041;-59
2023/01/09 00:55:45;;;;;;;22.83;9.68;;;;;;;;;;6090481;23;20031;-53
2023/01/09 00:58:19;;;;;;;24.70;10.13;;;;;;;;;;6087214;23;20563;-52
2023/01/09 01:00:46;;;;;;;22.00;9.63;;;;;;;;;;6090917;23;20027;-60
2023/01/09 01:03:13;;;;;;;27.80;9.18;;;;;;;;;;6088448;23;20022;-61
2023/01/09 01:08:33;;;;;;;22.63;10.23;;;;;;;;;;6088452;23;20751;-61
2023/01/09 01:11:08;;;;;;;22.60;8.45;;;;;;;;;;6089960;23;20033;-60
2023/01/09 01:13:37;;;;;;;15.05;8.30;;;;;;;;;;6088495;23;20106;-61
2023/01/09 01:16:18;;;;;;;23.27;9.45;;;;;;;;;;6089377;23;20022;-59
2023/01/09 01:18:46;;;;;;;24.55;9.88;;;;;;;;;;6089067;23;20029;-47
2023/01/09 01:21:20;;;;;;;21.65;8.35;;;;;;;;;;6087946;23;20049;-49
2023/01/09 01:23:47;;;;;;;15.70;8.27;;;;;;;;;;6088141;23;20022;-46
2023/01/09 01:26:15;;;;;;;20.85;8.73;;;;;;;;;;6089466;23;20405;-46
2023/01/09 01:28:49;;;;;;;25.48;9.60;;;;;;;;;;6087903;23;20563;-47
2023/01/09 01:31:17;;;;;;;20.13;9.35;;;;;;;;;;6089156;23;20502;-46
2023/01/09 01:33:51;;;;;;;19.15;9.40;;;;;;;;;;6088170;23;20030;-71
2023/01/09 01:36:18;;;;;;;23.42;9.30;;;;;;;;;;6088245;23;20101;-59
2023/01/09 01:38:45;;;;;;;24.63;9.20;;;;;;;;;;6088423;23;20033;-59
2023/01/09 01:41:28;;;;;;;21.17;8.63;;;;;;;;;;6088218;23;20090;-59
2023/01/09 01:43:55;;;;;;;20.60;8.75;;;;;;;;;;6088974;23;20495;-59
2023/01/09 01:46:29;;;;;;;23.90;8.60;;;;;;;;;;6087153;23;20143;-58
2023/01/09 01:49:12;;;;;;;19.42;7.70;;;;;;;;;;6088331;23;20033;-59
2023/01/09 01:51:49;;;;;;;21.58;7.25;;;;;;;;;;6088884;23;20486;-71
2023/01/09 01:54:22;;;;;;;21.42;8.77;;;;;;;;;;6087779;23;20023;-58
2023/01/09 01:57:01;;;;;;;17.88;7.82;;;;;;;;;;6086990;23;20019;-59
2023/01/09 01:59:31;;;;;;;20.27;8.43;;;;;;;;;;6089496;23;20109;-59
2023/01/09 02:02:05;;;;;;;27.10;7.72;;;;;;;;;;6088708;23;20027;-59
2023/01/09 02:04:33;;;;;;;22.30;10.30;;;;;;;;;;6087744;23;20033;-59
2023/01/09 02:07:02;;;;;;;31.50;9.38;;;;;;;;;;6085344;23;20138;-59
2023/01/09 02:09:37;;;;;;;25.98;9.90;;;;;;;;;;6086899;23;20065;-51
2023/01/09 02:12:17;;;;;;;31.70;11.52;;;;;;;;;;6088074;23;20022;-51
2023/01/09 02:15:00;;;;;;;27.00;10.45;;;;;;;;;;6117586;23;20066;-53
2023/01/09 02:17:52;;;;;;;23.08;9.30;;;;;;;;;;6117810;23;20117;-52
2023/01/09 02:20:25;;;;;;;29.70;10.07;;;;;;;;;;6117571;23;20367;-53
2023/01/09 02:23:18;;;;;;;24.58;9.80;;;;;;;;;;6116891;23;20061;-54
2023/01/09 02:26:00;;;;;;;23.20;9.90;;;;;;;;;;6117135;23;20109;-53
2023/01/09 02:28:34;;;;;;;24.17;11.27;;;;;;;;;;6116957;23;20096;-71
2023/01/09 02:31:08;;;;;;;28.45;10.95;;;;;;;;;;6118394;23;20061;-61
2023/01/09 02:33:42;;;;;;;22.00;10.40;;;;;;;;;;6115207;23;20822;-61
2023/01/09 02:36:27;;;;;;;30.08;10.48;;;;;;;;;;6117267;23;20064;-61
2023/01/09 02:39:19;;;;;;;28.77;11.60;;;;;;;;;;6116664;23;20026;-61
2023/01/09 02:41:59;;;;;;;25.58;11.63;;;;;;;;;;6117442;23;20030;-61
2023/01/09 02:44:34;;;;;;;25.23;12.05;;;;;;;;;;6117905;23;20028;-61
2023/01/09 02:47:06;;;;;;;29.30;11.40;;;;;;;;;;6117445;23;20034;-45
2023/01/09 02:49:42;;;;;;;22.45;10.93;;;;;;;;;;6116789;23;20050;-50
2023/01/09 02:52:09;;;;;;;34.58;11.70;;;;;;;;;;6117678;23;20032;-48
2023/01/09 02:54:39;;;;;;;24.70;10.48;;;;;;;;;;6119145;23;20100;-51
2023/01/09 02:57:21;;;;;;;28.98;11.38;;;;;;;;;;6118051;23;20026;-48
2023/01/09 03:00:03;;;;;;;28.38;10.18;;;;;;;;;;6119889;23;20041;-53
2023/01/09 03:02:47;;;;;;;30.67;11.48;;;;;;;;;;6117333;23;20666;-53
2023/01/09 03:05:29;;;;;;;30.48;11.93;;;;;;;;;;6119320;23;20025;-70
2023/01/09 03:08:23;;;;;;;31.73;12.63;;;;;;;;;;6119549;23;20049;-59
2023/01/09 03:10:59;;;;;;;21.75;10.35;;;;;;;;;;6118387;23;20100;-58
2023/01/09 03:13:41;;;;;;;36.90;13.88;;;;;;;;;;6106761;23;20030;-59
2023/01/09 03:16:11;;;;;;;33.58;13.02;;;;;;;;;;6078411;23;20097;-59
2023/01/09 03:18:47;;;;;;;28.05;12.25;;;;;;;;;;6087965;23;20049;-58
2023/01/09 03:21:15;;;;;;;35.65;14.05;;;;;;;;;;6089405;23;20527;-59
2023/01/09 03:23:47;;;;;;;31.50;13.35;;;;;;;;;;6090373;23;20105;-69
2023/01/09 03:26:21;;;;;;;35.03;15.07;;;;;;;;;;6089838;23;20028;-70
2023/01/09 03:28:48;;;;;;;;;;;;;;;;;;6090085;23;20057;-70
2023/01/09 03:31:22;;;;;;;38.17;14.23;;;;;;;;;;6089873;23;19925;-70
2023/01/09 03:33:49;;;;;;;43.65;15.35;;;;;;;;;;6087543;23;20054;-70
2023/01/09 03:36:23;;;;;;;40.08;14.70;;;;;;;;;;6088609;23;20421;-70
2023/01/09 03:38:50;;;;;;;;;;;;;;;;;;6089640;23;20105;-70
2023/01/09 03:41:18;;;;;;;42.00;13.63;;;;;;;;;;6089311;23;20004;-54
2023/01/09 03:43:52;;;;;;;35.20;14.25;;;;;;;;;;6089905;23;20105;-71
2023/01/09 03:46:19;;;;;;;31.75;13.68;;;;;;;;;;6089706;23;20029;-70
2023/01/09 03:48:53;;;;;;;32.67;12.77;;;;;;;;;;6088598;23;20058;-70
2023/01/09 03:51:20;;;;;;;40.05;15.77;;;;;;;;;;6089308;23;20041;-70
2023/01/09 03:53:47;;;;;;;32.30;15.05;;;;;;;;;;6087963;23;20026;-70
2023/01/09 03:56:20;;;;;;;29.88;14.13;;;;;;;;;;6089641;23;20480;-70
2023/01/09 03:58:49;;;;;;;44.45;15.65;;;;;;;;;;6088742;23;20423;-70
2023/01/09 04:01:23;;;;;;;35.80;15.57;;;;;;;;;;6090181;23;20026;-61
2023/01/09 04:03:50;;;;;;;34.83;13.98;;;;;;;;;;6088668;23;20022;-61
2023/01/09 04:06:17;;;;;;;41.38;15.63;;;;;;;;;;6089158;23;20050;-61
2023/01/09 04:08:51;;;;;;;38.58;15.43;;;;;;;;;;6089784;23;20061;-60
2023/01/09 04:11:21;;;;;;;;;;;;;;;;;;6090727;23;20033;-60
2023/01/09 04:13:48;;;;;;;39.05;16.45;;;;;;;;;;6103382;23;19933;-61
2023/01/09 04:16:28;;;;;;;46.78;15.40;;;;;;;;;;6119327;23;20022;-62
2023/01/09 04:18:56;;;;;;;46.22;16.10;;;;;;;;;;6116428;23;20021;-47
2023/01/09 04:21:30;;;;;;;52.38;16.10;;;;;;;;;;6117517;23;20022;-60
2023/01/09 04:23:57;;;;;;;39.42;15.38;;;;;;;;;;6117546;23;20021;-61
2023/01/09 04:26:24;;;;;;;43.50;15.90;;;;;;;;;;6118849;23;20058;-60
2023/01/09 04:28:59;;;;;;;50.65;16.80;;;;;;;;;;6117672;23;20641;-60
2023/01/09 04:31:26;;;;;;;43.50;16.33;;;;;;;;;;6118699;23;20049;-60
2023/01/09 04:34:00;;;;;;;39.15;16.10;;;;;;;;;;6117750;23;20029;-60
2023/01/09 04:36:27;;;;;;;54.50;16.58;;;;;;;;;;6117452;23;20430;-61
2023/01/09 04:38:54;;;;;;;47.15;16.80;;;;;;;;;;6116568;23;20550;-65
2023/01/09 04:44:14;;;;;;;53.97;16.50;;;;;;;;;;6116958;23;20891;-56
2023/01/09 04:46:48;;;;;;;53.92;16.88;;;;;;;;;;6118115;23;20543;-55
2023/01/09 04:49:15;;;;;;;46.33;16.48;;;;;;;;;;6117784;23;20025;-52
2023/01/09 04:51:42;;;;;;;47.22;17.08;;;;;;;;;;6118955;23;20105;-54
2023/01/09 04:54:16;;;;;;;57.28;16.00;;;;;;;;;;6105046;23;20112;-53
2023/01/09 04:56:49;;;;;;;50.25;15.25;;;;;;;;;;6118686;23;20033;-53
2023/01/09 04:59:30;;;;;;;35.78;13.82;;;;;;;;;;6117736;23;20054;-48
2023/01/09 05:01:58;;;;;;;38.17;16.08;;;;;;;;;;6117936;23;20026;-53
2023/01/09 05:04:32;;;;;;;41.90;14.95;;;;;;;;;;6118789;23;20105;-49
2023/01/09 05:06:59;;;;;;;25.83;9.13;;;;;;;;;;6119067;23;20050;-52
2023/01/09 05:09:27;;;;;;;39.25;13.00;;;;;;;;;;6117655;23;20534;-50
2023/01/09 05:12:01;;;;;;;27.70;12.00;;;;;;;;;;6117983;23;20018;-50
2023/01/09 05:14:34;;;;;;;27.73;10.85;;;;;;;;;;6116847;23;20084;-59
2023/01/09 05:17:08;;;;;;;32.45;12.82;;;;;;;;;;6117280;23;20526;-51
2023/01/09 05:19:35;;;;;;;30.25;10.27;;;;;;;;;;6117973;23;20045;-51
2023/01/09 05:22:02;;;;;;;24.38;11.50;;;;;;;;;;6116593;23;20109;-51
2023/01/09 05:24:36;;;;;;;28.08;11.68;;;;;;;;;;6115994;23;20143;-49
2023/01/09 05:27:03;;;;;;;27.65;12.07;;;;;;;;;;6119620;23;20108;-49
2023/01/09 05:29:36;;;;;;;29.00;12.65;;;;;;;;;;6117090;23;20471;-51
2023/01/09 05:32:04;;;;;;;24.98;10.88;;;;;;;;;;6117026;23;20096;-74
2023/01/09 05:34:31;;;;;;;28.92;10.77;;;;;;;;;;6117104;23;20551;-73
2023/01/09 05:37:05;;;;;;;19.02;9.20;;;;;;;;;;6118572;23;20025;-73
2023/01/09 05:39:32;;;;;;;20.45;9.10;;;;;;;;;;6116087;23;20032;-73
2023/01/09 05:42:06;;;;;;;28.75;10.23;;;;;;;;;;6117084;23;20405;-74
2023/01/09 05:44:33;;;;;;;22.50;10.32;;;;;;;;;;6117067;23;20089;-73
2023/01/09 05:47:00;;;;;;;17.05;9.77;;;;;;;;;;6116081;23;20046;-73
2023/01/09 05:49:34;;;;;;;18.65;8.23;;;;;;;;;;6116753;23;20065;-61
2023/01/09 05:52:01;;;;;;;26.33;9.95;;;;;;;;;;6117116;23;20180;-54
2023/01/09 05:54:35;;;;;;;20.52;9.73;;;;;;;;;;6116069;23;20022;-55
2023/01/09 05:57:02;;;;;;;17.35;8.57;;;;;;;;;;6117425;23;20551;-54
2023/01/09 05:59:29;;;;;;;25.63;10.43;;;;;;;;;;6117764;23;20049;-55
2023/01/09 06:02:03;;;;;;;21.10;9.10;;;;;;;;;;6115856;23;20030;-55
2023/01/09 06:04:30;;;;;;;20.85;9.27;;;;;;;;;;6116792;23;20022;-56
2023/01/09 06:07:04;;;;;;;23.65;10.40;;;;;;;;;;6116487;23;20104;-55
2023/01/09 06:09:31;;;;;;;22.48;9.85;;;;;;;;;;6116712;23;20471;-55
2023/01/09 06:11:58;;;;;;;18.05;8.73;;;;;;;;;;6119485;23;20109;-59
2023/01/09 06:14:38;;;;;;;25.00;10.65;;;;;;;;;;6097101;23;20121;-59
2023/01/09 06:17:06;;;;;;;21.45;9.20;;;;;;;;;;6089242;23;20105;-59
2023/01/09 06:19:40;;;;;;;26.38;10.32;;;;;;;;;;6088108;23;20030;-59
2023/01/09 06:22:07;;;;;;;25.08;11.02;;;;;;;;;;6087460;23;20097;-59
2023/01/09 06:24:34;;;;;;;22.75;10.57;;;;;;;;;;6088617;23;20097;-59
2023/01/09 06:27:08;;;;;;;22.80;9.82;;;;;;;;;;6090242;23;20097;-46
2023/01/09 06:29:35;;;;;;;22.00;9.57;;;;;;;;;;6091173;23;20035;-59
2023/01/09 06:32:09;;;;;;;24.50;10.38;;;;;;;;;;6090177;23;20412;-59
2023/01/09 06:34:36;;;;;;;21.83;10.60;;;;;;;;;;6090563;23;20558;-58
2023/01/09 06:37:03;;;;;;;24.73;10.93;;;;;;;;;;6090416;23;20291;-59
2023/01/09 06:39:37;;;;;;;17.55;7.78;;;;;;;;;;6090357;23;20561;-59
2023/01/09 06:42:04;;;;;;;25.45;10.35;;;;;;;;;;6091713;23;20468;-59
2023/01/09 06:44:32;;;;;;;23.63;10.57;;;;;;;;;;6089812;23;20520;-59
2023/01/09 06:47:06;;;;;;;24.55;8.18;;;;;;;;;;6090254;23;20093;-46
2023/01/09 06:49:33;;;;;;;;;;;;;;;;;;6091205;23;20022;-60
2023/01/09 06:52:07;;;;;;;17.88;7.53;;;;;;;;;;6090748;23;19959;-59
2023/01/09 06:54:34;;;;;;;16.27;7.93;;;;;;;;;;6090311;23;20739;-59
2023/01/09 06:57:01;;;;;;;;;;;;;;;;;;6091045;23;20074;-59
2023/01/09 06:59:36;;;;;;;23.60;8.70;;;;;;;;;;6090440;23;19927;-60
2023/01/09 07:02:03;;;;;;;20.58;9.50;;;;;;;;;;6090602;23;20029;-59
2023/01/09 07:04:37;;;;;;;18.38;8.38;;;;;;;;;;6089615;23;20030;-61
2023/01/09 07:07:04;;;;;;;;;;;;;;;;;;6088499;23;20101;-61
2023/01/09 07:09:31;;;;;;;16.08;8.23;;;;;;;;;;6087064;23;20784;-60
2023/01/09 07:12:06;;;;;;;18.52;7.90;;;;;;;;;;6091132;23;20582;-63
2023/01/09 07:14:40;;;;;;;16.95;8.55;;;;;;;;;;6109108;23;20479;-60
2023/01/09 07:17:20;;;;;;;19.58;7.85;;;;;;;;;;6119469;23;20028;-61
2023/01/09 07:19:48;;;;;;;16.70;8.20;;;;;;;;;;6118863;23;20026;-61
2023/01/09 07:22:22;;;;;;;13.93;8.00;;;;;;;;;;6118332;23;20022;-61
2023/01/09 07:24:49;;;;;;;16.92;7.82;;;;;;;;;;6118343;23;20030;-53
2023/01/09 07:27:16;;;;;;;23.75;9.45;;;;;;;;;;6120929;23;20026;-48
2023/01/09 07:29:52;;;;;;;15.50;6.85;;;;;;;;;;6119476;23;20018;-52
2023/01/09 07:32:19;;;;;;;18.42;8.55;;;;;;;;;;6119473;23;20085;-49
2023/01/09 07:34:53;;;;;;;18.63;8.50;;;;;;;;;;6118885;23;20422;-52
2023/01/09 07:37:20;;;;;;;22.20;8.98;;;;;;;;;;6118830;23;20122;-50
2023/01/09 07:39:47;;;;;;;25.17;9.05;;;;;;;;;;6118611;23;20096;-47
2023/01/09 07:42:21;;;;;;;17.58;8.40;;;;;;;;;;6119727;23;20116;-69
2023/01/09 07:44:48;;;;;;;20.45;8.73;;;;;;;;;;6118308;23;20076;-49
2023/01/09 07:47:22;;;;;;;17.52;6.80;;;;;;;;;;6118362;23;20018;-49
2023/01/09 07:49:49;;;;;;;16.98;8.95;;;;;;;;;;6120021;23;20026;-56
2023/01/09 07:52:16;;;;;;;19.30;8.60;;;;;;;;;;6118381;23;20053;-57
2023/01/09 07:54:50;;;;;;;14.25;7.57;;;;;;;;;;6118271;23;20448;-52
2023/01/09 07:57:17;;;;;;;20.30;7.63;;;;;;;;;;6119915;23;20100;-54
2023/01/09 07:59:51;;;;;;;17.98;8.63;;;;;;;;;;6119447;23;20104;-60
2023/01/09 08:02:18;;;;;;;20.63;7.47;;;;;;;;;;6118371;23;20104;-75
2023/01/09 08:04:45;;;;;;;21.63;8.45;;;;;;;;;;6119192;23;20094;-77
2023/01/09 08:07:19;;;;;;;18.60;8.45;;;;;;;;;;6118125;23;20028;-77
2023/01/09 08:09:46;;;;;;;23.52;9.10;;;;;;;;;;6118861;23;20653;-77
2023/01/09 08:12:20;;;;;;;15.48;7.03;;;;;;;;;;6118843;23;20068;-76
2023/01/09 08:14:54;;;;;;;19.52;8.73;;;;;;;;;;6098251;23;20065;-75
2023/01/09 08:17:28;;;;;;;14.00;8.15;;;;;;;;;;6089796;23;20050;-70
2023/01/09 08:19:55;;;;;;;20.38;8.27;;;;;;;;;;6089000;23;20109;-59
2023/01/09 08:22:22;;;;;;;16.70;8.63;;;;;;;;;;6089109;23;20549;-59
2023/01/09 08:24:56;;;;;;;22.10;9.32;;;;;;;;;;6088443;23;20841;-58
2023/01/09 08:27:23;;;;;;;18.67;9.10;;;;;;;;;;6089212;23;20360;-60
2023/01/09 08:29:57;;;;;;;17.40;6.97;;;;;;;;;;6089272;23;20102;-59
2023/01/09 08:32:24;;;;;;;12.20;6.35;;;;;;;;;;6089127;23;20022;-59
2023/01/09 08:34:51;;;;;;;14.07;7.95;;;;;;;;;;6089448;23;20506;-59
2023/01/09 08:37:25;;;;;;;14.48;6.53;;;;;;;;;;6089680;23;20027;-61
2023/01/09 08:39:52;;;;;;;17.20;7.15;;;;;;;;;;6089545;23;20589;-60
2023/01/09 08:48:05;;;;;;;15.75;7.88;;;;;;;;;;6089850;23;20507;-60
2023/01/09 08:50:32;;;;;;;18.55;8.25;;;;;;;;;;6089743;23;20415;-60
2023/01/09 08:53:06;;;;;;;15.05;7.75;;;;;;;;;;6089365;23;20094;-60
2023/01/09 08:55:33;;;;;;;24.13;9.25;;;;;;;;;;6089650;23;20022;-73
2023/01/09 08:58:00;;;;;;;20.27;9.82;;;;;;;;;;6089409;23;20026;-74
2023/01/09 09:00:35;;;;;;;24.13;10.02;;;;;;;;;;6088741;23;20364;-75
2023/01/09 09:03:02;;;;;;;17.63;8.93;;;;;;;;;;6089852;23;20057;-75
2023/01/09 09:05:36;;;;;;;17.13;8.60;;;;;;;;;;6089357;23;20089;-74
2023/01/09 09:08:03;;;;;;;21.00;9.38;;;;;;;;;;6090017;23;20093;-75
2023/01/09 09:10:37;;;;;;;21.83;10.48;;;;;;;;;;6088272;23;20026;-75
2023/01/09 09:13:04;;;;;;;23.13;8.20;;;;;;;;;;6088839;23;20026;-69
2023/01/09 09:15:37;;;;;;;23.33;8.85;;;;;;;;;;6090787;23;20097;-61
2023/01/09 09:18:12;;;;;;;17.70;8.55;;;;;;;;;;6088974;23;20068;-61
2023/01/09 09:20:39;;;;;;;18.33;9.20;;;;;;;;;;6089050;23;20030;-60
2023/01/09 09:23:13;;;;;;;19.15;9.65;;;;;;;;;;6089196;23;20028;-61
2023/01/09 09:25:40;;;;;;;18.75;9.30;;;;;;;;;;6089438;23;20065;-61
2023/01/09 09:28:14;;;;;;;21.40;9.02;;;;;;;;;;6088135;23;20121;-61
2023/01/09 09:30:41;;;;;;;18.40;8.52;;;;;;;;;;6089571;23;20129;-52
2023/01/09 09:33:08;;;;;;;18.83;7.70;;;;;;;;;;6088898;23;20061;-50
2023/01/09 09:35:43;;;;;;;17.15;8.93;;;;;;;;;;6088532;23;20026;-51
2023/01/09 09:38:10;;;;;;;17.23;8.20;;;;;;;;;;6088618;23;20472;-50
2023/01/09 09:40:46;;;;;;;16.05;7.75;;;;;;;;;;6089572;23;20023;-51
2023/01/09 09:46:28;;;;;;;17.95;7.85;;;;;;;;;;6088263;23;20477;-48
2023/01/09 09:49:05;;;;;;;14.00;6.90;;;;;;;;;;6089077;23;20026;-58
2023/01/09 09:51:44;;;;;;;18.88;8.63;;;;;;;;;;6088976;23;20032;-58
2023/01/09 09:54:20;;;;;;;14.60;7.90;;;;;;;;;;6090130;23;20037;-59
2023/01/09 09:56:56;;;;;;;13.80;7.25;;;;;;;;;;6088813;23;20101;-59
2023/01/09 09:59:32;;;;;;;18.10;8.10;;;;;;;;;;6089185;23;20121;-59
2023/01/09 10:02:08;;;;;;;13.10;6.95;;;;;;;;;;6087508;23;20030;-59
2023/01/09 10:04:42;;;;;;;19.77;7.65;;;;;;;;;;6090360;23;20097;-59
2023/01/09 10:07:25;;;;;;;18.35;8.43;;;;;;;;;;6089839;23;20029;-52
2023/01/09 10:09:54;;;;;;;17.45;8.95;;;;;;;;;;6091347;23;20027;-59
2023/01/09 10:12:37;;;;;;;13.57;8.55;;;;;;;;;;6091656;23;20472;-60
2023/01/09 10:15:15;;;;;;;8.57;4.88;;;;;;;;;;6091657;23;20071;-59
2023/01/09 10:18:07;;;;;;;9.95;4.93;;;;;;;;;;6091216;23;20018;-59
2023/01/09 10:20:40;;;;;;;12.95;7.60;;;;;;;;;;6090983;23;20032;-59
2023/01/09 10:23:27;;;;;;;10.90;6.85;;;;;;;;;;6090333;23;20069;-59
2023/01/09 10:26:01;;;;;;;14.07;6.90;;;;;;;;;;6090532;23;20074;-61
2023/01/09 10:28:47;;;;;;;15.55;7.72;;;;;;;;;;6090588;23;20034;-46
2023/01/09 10:31:22;;;;;;;12.15;6.28;;;;;;;;;;6090227;23;20062;-46
2023/01/09 10:34:08;;;;;;;11.88;5.95;;;;;;;;;;6091058;23;20061;-47
2023/01/09 10:36:47;;;;;;;11.05;5.18;;;;;;;;;;6090939;23;20026;-50
2023/01/09 10:39:34;;;;;;;10.05;5.10;;;;;;;;;;6090942;23;20472;-50
2023/01/09 10:42:10;;;;;;;14.32;7.20;;;;;;;;;;6090413;23;20077;-46
2023/01/09 10:44:56;;;;;;;10.88;5.93;;;;;;;;;;6090553;23;20512;-60
2023/01/09 10:47:27;;;;;;;12.90;6.53;;;;;;;;;;6089776;23;20057;-59
2023/01/09 10:50:19;;;;;;;11.30;5.75;;;;;;;;;;6090072;23;20023;-59
2023/01/09 10:52:48;;;;;;;14.45;6.10;;;;;;;;;;6091248;23;20030;-59
2023/01/09 10:55:26;;;;;;;11.20;5.50;;;;;;;;;;6089556;23;20032;-59
2023/01/09 10:57:56;;;;;;;15.15;6.45;;;;;;;;;;6091429;23;20019;-59
2023/01/09 11:00:30;;;;;;;11.05;5.93;;;;;;;;;;6090524;23;20428;-59
2023/01/09 11:02:57;;;;;;;11.98;6.28;;;;;;;;;;6090611;23;20026;-56
2023/01/09 11:05:26;;;;;;;7.65;4.88;;;;;;;;;;6090119;23;20852;-59
2023/01/09 11:08:13;;;;;;;10.43;4.55;;;;;;;;;;6089992;23;20105;-59
2023/01/09 11:10:48;;;;;;;12.15;6.07;;;;;;;;;;6090113;23;20564;-59
2023/01/09 11:13:31;;;;;;;10.90;6.28;;;;;;;;;;6090089;23;20485;-59
2023/01/09 11:16:04;;;;;;;12.75;5.35;;;;;;;;;;6089643;23;20094;-59
2023/01/09 11:18:39;;;;;;;7.40;4.65;;;;;;;;;;6091445;23;20029;-59
2023/01/09 11:21:13;;;;;;;11.13;6.13;;;;;;;;;;6089517;23;20030;-69
2023/01/09 11:23:48;;;;;;;11.25;5.80;;;;;;;;;;6090999;23;20029;-60
2023/01/09 11:26:26;;;;;;;10.30;5.63;;;;;;;;;;6089727;23;20112;-60
2023/01/09 11:29:07;;;;;;;11.65;6.70;;;;;;;;;;6089773;23;20419;-60
2023/01/09 11:31:34;;;;;;;8.93;4.80;;;;;;;;;;6090288;23;20490;-61
2023/01/09 11:34:18;;;;;;;7.72;4.78;;;;;;;;;;6089541;23;20033;-60
2023/01/09 11:36:45;;;;;;;10.65;5.60;;;;;;;;;;6090940;23;20058;-60
2023/01/09 11:39:23;;;;;;;12.27;6.82;;;;;;;;;;6089831;23;20033;-45
2023/01/09 11:41:55;;;;;;;8.52;5.53;;;;;;;;;;6090574;23;20524;-51
2023/01/09 11:44:30;;;;;;;10.48;5.63;;;;;;;;;;6090278;23;20488;-51
2023/01/09 11:46:57;;;;;;;10.40;5.88;;;;;;;;;;6090285;23;20101;-53
2023/01/09 11:49:33;;;;;;;9.80;4.47;;;;;;;;;;6089354;23;20612;-48
2023/01/09 11:52:13;;;;;;;6.65;4.03;;;;;;;;;;6090635;23;20118;-52
2023/01/09 11:54:51;;;;;;;8.77;4.97;;;;;;;;;;6090707;23;20094;-51
2023/01/09 11:57:25;;;;;;;11.25;4.50;;;;;;;;;;6089138;23;20027;-70
2023/01/09 11:59:54;;;;;;;;;;;;;;;;;;6090321;23;20019;-46
2023/01/09 12:02:40;;;;;;;11.77;5.28;;;;;;;;;;6065002;23;20039;-54
2023/01/09 12:05:22;;;;;;;11.02;4.80;;;;;;;;;;6089039;23;20029;-52
2023/01/09 12:07:59;;;;;;;11.60;5.05;;;;;;;;;;6089650;23;20110;-51
2023/01/09 12:10:36;;;;;;;9.85;6.40;;;;;;;;;;6089830;23;20113;-55
2023/01/09 12:13:19;;;;;;;11.35;5.55;;;;;;;;;;6090283;23;20053;-55
2023/01/09 12:16:09;;;;;;;7.97;5.22;;;;;;;;;;6117288;23;20104;-47
2023/01/09 12:19:09;;;;;;;9.43;4.32;;;;;;;;;;6119075;23;20022;-49
2023/01/09 12:21:41;;;;;;;9.70;5.30;;;;;;;;;;6118731;23;20026;-52
2023/01/09 12:24:24;;;;;;;10.05;4.70;;;;;;;;;;6118268;23;20026;-54
2023/01/09 12:27:07;;;;;;;11.75;5.13;;;;;;;;;;6119250;23;20022;-50
2023/01/09 12:29:40;;;;;;;7.28;4.43;;;;;;;;;;6118563;23;20101;-51
2023/01/09 12:32:20;;;;;;;7.75;4.88;;;;;;;;;;6119013;23;20026;-52
2023/01/09 12:35:10;;;;;;;8.85;5.85;;;;;;;;;;6118191;23;20060;-46
2023/01/09 12:38:01;;;;;;;7.40;5.03;;;;;;;;;;6111765;23;20068;-54
2023/01/09 12:40:31;;;;;;;10.43;5.50;;;;;;;;;;6117812;23;20081;-55
2023/01/09 12:43:12;;;;;;;8.45;6.03;;;;;;;;;;6119070;23;20037;-55
2023/01/09 12:45:54;;;;;;;11.07;4.95;;;;;;;;;;6118710;23;20404;-54
2023/01/09 12:48:39;;;;;;;6.78;4.10;;;;;;;;;;6118195;23;20022;-53
2023/01/09 12:51:12;;;;;;;6.70;3.53;;;;;;;;;;6118999;23;20121;-56
2023/01/09 12:54:01;;;;;;;7.60;4.70;;;;;;;;;;6118961;23;20036;-75
2023/01/09 12:56:34;;;;;;;9.23;4.20;;;;;;;;;;6117918;23;20113;-54
2023/01/09 12:59:28;;;;;;;7.72;5.50;;;;;;;;;;6118245;23;20105;-55
2023/01/09 13:02:08;;;;;;;6.63;3.97;;;;;;;;;;6118426;23;20026;-52
2023/01/09 13:04:47;;;;;;;10.50;6.22;;;;;;;;;;6117282;23;20049;-55
2023/01/09 13:07:19;;;;;;;11.68;5.50;;;;;;;;;;6119720;23;20092;-52
2023/01/09 13:09:59;;;;;;;9.43;5.82;;;;;;;;;;6118528;23;20029;-52
2023/01/09 13:12:27;;;;;;;8.55;5.72;;;;;;;;;;6118423;23;20089;-52
2023/01/09 13:15:28;;;;;;;10.88;5.75;;;;;;;;;;6102696;23;20037;-60
2023/01/09 13:17:59;;;;;;;6.82;4.90;;;;;;;;;;6089832;23;20026;-59
2023/01/09 13:20:42;;;;;;;7.82;5.00;;;;;;;;;;6088491;23;20058;-59
2023/01/09 13:23:12;;;;;;;9.45;6.28;;;;;;;;;;6089987;23;20029;-60
2023/01/09 13:25:51;;;;;;;7.90;5.57;;;;;;;;;;6088127;23;20905;-60
2023/01/09 13:28:30;;;;;;;8.75;4.97;;;;;;;;;;6089053;23;20060;-60
2023/01/09 13:31:13;;;;;;;8.38;5.30;;;;;;;;;;6089147;23;20499;-71
2023/01/09 13:33:55;;;;;;;9.90;4.85;;;;;;;;;;6088757;23;20490;-76
2023/01/09 13:36:24;;;;;;;9.45;5.30;;;;;;;;;;6088144;23;20061;-76
2023/01/09 13:38:59;;;;;;;9.23;5.53;;;;;;;;;;6089515;23;20471;-76
2023/01/09 13:44:44;;;;;;;;;;;;;;;;;;6089768;23;20110;-76
2023/01/09 13:47:22;;;;;;;10.18;5.40;;;;;;;;;;6088028;23;19917;-77
2023/01/09 13:50:00;;;;;;;9.70;5.82;;;;;;;;;;6088682;23;20109;-74
2023/01/09 13:52:43;;;;;;;10.68;5.90;;;;;;;;;;6089617;23;20026;-61
2023/01/09 13:55:23;;;;;;;9.40;5.78;;;;;;;;;;6087976;23;20101;-61
2023/01/09 13:58:13;;;;;;;8.23;4.97;;;;;;;;;;6089395;23;20563;-61
2023/01/09 14:00:47;;;;;;;11.60;5.70;;;;;;;;;;6082529;23;20061;-61
2023/01/09 14:03:37;;;;;;;9.45;6.18;;;;;;;;;;6087863;23;20476;-61
2023/01/09 14:06:12;;;;;;;6.95;5.30;;;;;;;;;;6087444;23;20133;-61
2023/01/09 14:08:40;;;;;;;8.55;5.18;;;;;;;;;;6088830;23;20022;-72
2023/01/09 14:11:18;;;;;;;10.15;5.63;;;;;;;;;;6088722;23;20053;-68
2023/01/09 14:13:58;;;;;;;10.48;5.75;;;;;;;;;;6088301;23;20054;-67
2023/01/09 14:16:39;;;;;;;15.07;5.93;;;;;;;;;;6089448;23;20030;-68
2023/01/09 14:19:16;;;;;;;13.27;8.60;;;;;;;;;;6089504;23;20033;-68
2023/01/09 14:21:54;;;;;;;10.98;6.65;;;;;;;;;;6089455;23;20097;-68
2023/01/09 14:24:28;;;;;;;9.30;5.97;;;;;;;;;;6088788;23;20093;-60
2023/01/09 14:27:02;;;;;;;11.82;6.00;;;;;;;;;;6089537;23;20023;-57
2023/01/09 14:29:35;;;;;;;10.38;6.63;;;;;;;;;;6088583;23;20069;-59
2023/01/09 14:32:21;;;;;;;11.80;7.15;;;;;;;;;;6087983;23;20357;-59
2023/01/09 14:35:02;;;;;;;9.50;6.57;;;;;;;;;;6088383;23;20547;-59
2023/01/09 14:37:30;;;;;;;9.07;6.07;;;;;;;;;;6089238;23;20031;-60
2023/01/09 14:40:07;;;;;;;10.87;6.90;;;;;;;;;;6117830;23;20033;-59
2023/01/09 14:42:41;;;;;;;14.90;7.20;;;;;;;;;;6118710;23;20101;-53
2023/01/09 14:45:08;;;;;;;;;;;;;;;;;;6118591;23;20057;-46
2023/01/09 14:47:39;;;;;;;13.35;6.78;;;;;;;;;;6116596;23;19983;-60
2023/01/09 14:50:35;;;;;;;11.10;6.90;;;;;;;;;;6119744;23;20022;-61
2023/01/09 14:53:21;;;;;;;12.27;7.47;;;;;;;;;;6120196;23;20627;-60
2023/01/09 14:55:56;;;;;;;12.25;7.15;;;;;;;;;;6120116;23;20055;-60
2023/01/09 14:58:28;;;;;;;14.73;7.75;;;;;;;;;;6120307;23;20246;-61
2023/01/09 15:01:15;;;;;;;15.02;8.30;;;;;;;;;;6118700;23;20059;-61
2023/01/09 15:03:51;;;;;;;11.63;7.80;;;;;;;;;;6120114;23;20072;-47
2023/01/09 15:06:27;;;;;;;12.95;7.45;;;;;;;;;;6119643;23;20397;-72
2023/01/09 15:09:01;;;;;;;12.38;8.10;;;;;;;;;;6119297;23;20026;-72
2023/01/09 15:11:38;;;;;;;14.52;8.43;;;;;;;;;;6120277;23;20352;-72
2023/01/09 15:14:33;;;;;;;15.02;8.85;;;;;;;;;;6119251;23;20108;-72
2023/01/09 15:17:15;;;;;;;16.83;8.35;;;;;;;;;;6119160;23;20129;-71
2023/01/09 15:19:49;;;;;;;;;;;;;;;;;;6118379;23;20022;-60
2023/01/09 15:22:28;;;;;;;13.65;9.02;;;;;;;;;;6120355;23;20426;-68
2023/01/09 15:25:21;;;;;;;19.08;10.40;;;;;;;;;;6117911;23;20535;-68
2023/01/09 15:27:56;;;;;;;22.40;10.52;;;;;;;;;;6119472;23;20097;-68